createdAt,value
2023-05-18T00:01:22.305Z,74.38
2023-05-18T00:04:28.209Z,74.12
2023-05-18T00:07:35.321Z,72.87
2023-05-18T00:10:39.417Z,73.51
2023-05-18T00:13:43.578Z,74.06
2023-05-18T00:16:47.778Z,74.03
2023-05-18T00:19:53.846Z,72.70
2023-05-18T00:22:57.452Z,72.08
2023-05-18T00:26:02.554Z,71.04
2023-05-18T00:29:06.278Z,70.15
2023-05-18T00:32:09.931Z,70.64
2023-05-18T00:35:15.528Z,70.20
2023-05-18T00:38:19.506Z,69.71
2023-05-18T00:41:23.821Z,70.71
2023-05-18T00:44:27.599Z,69.76
2023-05-18T00:47:31.152Z,70.20
2023-05-18T00:50:36.416Z,69.89
2023-05-18T00:53:42.069Z,68.75
2023-05-18T00:56:48.483Z,68.82
2023-05-18T00:59:52.479Z,70.05
2023-05-18T01:02:56.098Z,70.15
2023-05-18T01:06:01.142Z,70.27
2023-05-18T01:09:10.496Z,70.17
2023-05-18T01:12:22.618Z,70.34
2023-05-18T01:15:33.834Z,69.72
2023-05-18T01:18:49.123Z,69.41
2023-05-18T01:22:05.792Z,69.80
2023-05-18T01:25:19.695Z,69.75
2023-05-18T01:28:29.827Z,69.87
2023-05-18T01:31:34.734Z,70.11
2023-05-18T01:34:39.676Z,70.06
2023-05-18T01:37:43.224Z,70.71
2023-05-18T01:40:58.105Z,71.53
2023-05-18T01:44:09.991Z,71.07
2023-05-18T01:47:16.505Z,71.24
2023-05-18T01:50:23.962Z,71.78
2023-05-18T01:53:35.476Z,72.22
2023-05-18T01:56:40.576Z,72.37
2023-05-18T01:59:46.354Z,71.60
2023-05-18T02:02:50.826Z,71.12
2023-05-18T02:05:54.994Z,71.25
2023-05-18T02:08:58.721Z,71.35
2023-05-18T02:12:02.989Z,71.26
2023-05-18T02:15:09.240Z,70.74
2023-05-18T02:18:12.737Z,72.04
2023-05-18T02:21:16.768Z,70.95
2023-05-18T02:24:20.158Z,71.65
2023-05-18T02:27:23.744Z,70.32
2023-05-18T02:30:29.425Z,70.68
2023-05-18T02:33:39.393Z,71.47
2023-05-18T02:36:43.024Z,71.06
2023-05-18T02:39:46.617Z,70.45
2023-05-18T02:42:54.793Z,70.10
2023-05-18T02:45:59.748Z,70.83
2023-05-18T02:49:04.176Z,70.38
2023-05-18T02:52:08.255Z,70.86
2023-05-18T02:55:13.840Z,71.79
2023-05-18T02:58:29.362Z,70.90
2023-05-18T03:01:44.400Z,70.70
2023-05-18T03:04:54.102Z,71.16
2023-05-18T03:07:58.745Z,70.47
2023-05-18T03:11:03.306Z,70.25
2023-05-18T03:14:07.326Z,71.92
2023-05-18T03:17:13.404Z,69.93
2023-05-18T03:20:20.044Z,71.18
2023-05-18T03:23:23.535Z,71.71
2023-05-18T03:26:30.934Z,71.22
2023-05-18T03:29:35.847Z,71.13
2023-05-18T03:32:43.059Z,71.13
2023-05-18T03:35:48.496Z,71.12
2023-05-18T03:38:52.618Z,70.68
2023-05-18T03:41:56.607Z,70.26
2023-05-18T03:45:00.471Z,71.44
2023-05-18T03:48:06.445Z,71.36
2023-05-18T03:51:10.075Z,69.95
2023-05-18T03:54:13.634Z,70.92
2023-05-18T03:57:17.311Z,71.35
2023-05-18T04:00:21.252Z,71.36
2023-05-18T04:03:27.311Z,72.04
2023-05-18T04:06:32.982Z,71.91
2023-05-18T04:09:37.121Z,70.86
2023-05-18T04:12:41.016Z,71.91
2023-05-18T04:15:44.928Z,71.30
2023-05-18T04:18:50.559Z,71.80
2023-05-18T04:21:54.907Z,71.75
2023-05-18T04:24:58.344Z,72.22
2023-05-18T04:28:03.207Z,71.42
2023-05-18T04:31:06.793Z,70.89
2023-05-18T04:34:13.596Z,71.72
2023-05-18T04:37:18.191Z,73.01
2023-05-18T04:40:22.674Z,72.21
2023-05-18T04:43:28.361Z,72.57
2023-05-18T04:46:32.563Z,72.04
2023-05-18T04:49:40.314Z,72.38
2023-05-18T04:52:49.126Z,70.87
2023-05-18T04:55:57.029Z,72.56
2023-05-18T04:59:00.861Z,71.60
2023-05-18T05:02:06.397Z,71.84
2023-05-18T05:05:14.011Z,72.51
2023-05-18T05:08:17.613Z,71.72
2023-05-18T05:11:21.859Z,72.04
2023-05-18T05:14:25.473Z,72.73
2023-05-18T05:17:31.824Z,71.60
2023-05-18T05:20:36.836Z,71.37
2023-05-18T05:23:41.592Z,71.10
2023-05-18T05:26:45.979Z,71.02
2023-05-18T05:29:50.477Z,70.25
2023-05-18T05:32:54.229Z,69.69
2023-05-18T05:35:59.584Z,69.96
2023-05-18T05:39:03.138Z,71.40
2023-05-18T05:42:08.625Z,70.69
2023-05-18T05:45:12.650Z,70.93
2023-05-18T05:48:25.824Z,71.05
2023-05-18T05:51:31.004Z,68.76
2023-05-18T05:54:34.632Z,70.41
2023-05-18T05:57:39.958Z,68.84
2023-05-18T06:00:44.146Z,69.12
2023-05-18T06:03:48.890Z,69.64
2023-05-18T06:06:54.295Z,70.01
2023-05-18T06:09:58.450Z,68.64
2023-05-18T06:13:02.252Z,67.79
2023-05-18T06:16:16.948Z,68.66
2023-05-18T06:19:20.646Z,67.29
2023-05-18T06:22:26.245Z,67.32
2023-05-18T06:25:51.078Z,68.00
2023-05-18T06:29:14.850Z,67.95
2023-05-18T06:32:37.558Z,68.38
2023-05-18T06:35:41.885Z,67.42
2023-05-18T06:38:46.976Z,67.29
2023-05-18T06:41:52.277Z,68.05
2023-05-18T06:44:59.909Z,67.56
2023-05-18T06:48:35.951Z,66.84
2023-05-18T06:51:39.742Z,66.15
2023-05-18T06:54:45.172Z,65.69
2023-05-18T06:57:49.168Z,66.72
2023-05-18T07:00:54.288Z,64.19
2023-05-18T07:03:58.454Z,63.59
2023-05-18T07:07:01.841Z,63.06
2023-05-18T07:10:08.300Z,62.92
2023-05-18T07:13:12.497Z,61.86
2023-05-18T07:16:16.022Z,62.40
2023-05-18T07:19:19.856Z,61.84
2023-05-18T07:22:23.510Z,62.66
2023-05-18T07:25:28.813Z,62.00
2023-05-18T07:28:34.934Z,60.67
2023-05-18T07:31:40.720Z,61.01
2023-05-18T07:34:46.849Z,62.06
2023-05-18T07:37:51.983Z,60.34
2023-05-18T07:40:56.757Z,60.13
2023-05-18T07:44:00.294Z,60.64
2023-05-18T07:47:04.011Z,59.82
2023-05-18T07:50:08.324Z,59.93
2023-05-18T07:53:12.131Z,61.05
2023-05-18T07:56:17.142Z,61.82
2023-05-18T07:59:21.385Z,60.06
2023-05-18T08:02:24.958Z,61.36
2023-05-18T08:05:29.012Z,59.42
2023-05-18T08:08:32.669Z,59.15
2023-05-18T08:11:37.693Z,59.12
2023-05-18T08:14:41.212Z,59.34
2023-05-18T08:17:44.670Z,56.88
2023-05-18T08:20:48.278Z,56.52
2023-05-18T08:23:51.831Z,54.92
2023-05-18T08:26:57.825Z,54.31
2023-05-18T08:30:01.802Z,57.06
2023-05-18T08:33:05.537Z,55.69
2023-05-18T08:36:10.111Z,56.19
2023-05-18T08:39:14.311Z,55.05
2023-05-18T08:42:25.980Z,55.68
2023-05-18T08:45:41.695Z,54.30
2023-05-18T08:48:54.674Z,54.38
2023-05-18T08:52:01.393Z,54.49
2023-05-18T08:55:10.125Z,53.39
2023-05-18T08:58:21.150Z,54.89
2023-05-18T09:01:29.279Z,54.42
2023-05-18T09:04:34.946Z,51.05
2023-05-18T09:07:40.502Z,55.11
2023-05-18T09:10:44.062Z,54.17
2023-05-18T09:13:50.714Z,52.41
2023-05-18T09:16:54.351Z,51.70
2023-05-18T09:19:57.788Z,54.48
2023-05-18T09:23:01.475Z,52.09
2023-05-18T09:26:06.131Z,51.57
2023-05-18T09:29:19.639Z,51.72
2023-05-18T09:32:23.351Z,52.58
2023-05-18T09:35:26.936Z,54.55
2023-05-18T09:38:30.950Z,51.95
2023-05-18T09:41:34.362Z,49.01
2023-05-18T09:44:39.220Z,52.78
2023-05-18T09:47:42.844Z,53.19
2023-05-18T09:50:46.475Z,53.55
2023-05-18T09:53:54.475Z,51.31
2023-05-18T09:57:09.400Z,50.66
2023-05-18T10:00:17.340Z,52.27
2023-05-18T10:03:23.304Z,47.21
2023-05-18T10:06:28.758Z,50.97
2023-05-18T10:09:32.421Z,48.12
2023-05-18T10:12:40.457Z,49.98
2023-05-18T10:15:51.208Z,49.46
2023-05-18T10:18:57.309Z,51.41
2023-05-18T10:22:01.711Z,49.55
2023-05-18T10:25:07.134Z,48.44
2023-05-18T10:28:12.906Z,50.45
2023-05-18T10:31:18.774Z,47.66
2023-05-18T10:34:24.994Z,50.83
2023-05-18T10:37:30.988Z,51.64
2023-05-18T10:40:37.451Z,50.58
2023-05-18T10:43:43.374Z,50.02
2023-05-18T10:46:48.911Z,50.94
2023-05-18T10:49:53.789Z,51.68
2023-05-18T10:53:00.825Z,48.77
2023-05-18T10:56:04.402Z,49.82
2023-05-18T10:59:09.242Z,50.40
2023-05-18T11:02:16.901Z,50.20
2023-05-18T11:05:27.570Z,53.22
2023-05-18T11:08:31.437Z,53.15
2023-05-18T11:11:53.137Z,52.55
2023-05-18T11:14:57.915Z,54.35
2023-05-18T11:18:16.579Z,52.20
2023-05-18T11:21:49.276Z,50.85
2023-05-18T11:24:52.852Z,52.22
2023-05-18T11:28:02.135Z,48.92
2023-05-18T11:31:06.212Z,50.45
2023-05-18T11:34:46.003Z,51.13
2023-05-18T11:37:50.685Z,50.64
2023-05-18T11:40:54.078Z,51.96
2023-05-18T11:44:18.598Z,49.52
2023-05-18T11:47:22.081Z,49.25
2023-05-18T11:50:27.307Z,52.10
2023-05-18T11:53:31.649Z,49.01
2023-05-18T11:56:35.331Z,51.70
2023-05-18T11:59:40.059Z,49.81
2023-05-18T12:02:45.686Z,50.60
2023-05-18T12:05:51.728Z,49.61
2023-05-18T12:08:56.703Z,50.03
2023-05-18T12:12:00.334Z,50.78
2023-05-18T12:15:05.641Z,49.65
2023-05-18T12:18:09.197Z,48.74
2023-05-18T12:21:13.976Z,47.15
2023-05-18T12:24:17.331Z,47.35
2023-05-18T12:27:23.087Z,49.64
2023-05-18T12:30:35.258Z,48.96
2023-05-18T12:33:39.516Z,47.20
2023-05-18T12:36:54.050Z,49.54
2023-05-18T12:39:57.324Z,46.35
2023-05-18T12:43:03.414Z,50.41
2023-05-18T12:46:07.035Z,50.05
2023-05-18T12:49:13.454Z,47.88
2023-05-18T12:52:18.571Z,49.90
2023-05-18T12:55:23.140Z,50.45
2023-05-18T12:58:26.717Z,47.62
2023-05-18T13:01:30.779Z,46.58
2023-05-18T13:04:35.473Z,47.97
2023-05-18T13:07:41.834Z,51.11
2023-05-18T13:10:47.921Z,51.47
2023-05-18T13:14:05.446Z,50.60
2023-05-18T13:17:09.310Z,52.01
2023-05-18T13:20:16.845Z,49.64
2023-05-18T13:23:23.303Z,48.47
2023-05-18T13:26:27.310Z,51.49
2023-05-18T13:29:30.787Z,51.41
2023-05-18T13:32:35.109Z,51.39
2023-05-18T13:35:40.718Z,50.84
2023-05-18T13:38:45.785Z,50.40
2023-05-18T13:41:49.276Z,51.87
2023-05-18T13:44:52.924Z,51.28
2023-05-18T13:47:57.086Z,51.49
2023-05-18T13:51:00.542Z,52.01
2023-05-18T13:54:05.769Z,51.25
2023-05-18T13:57:10.229Z,49.50
2023-05-18T14:00:14.788Z,49.89
2023-05-18T14:03:20.226Z,52.58
2023-05-18T14:06:24.060Z,51.56
2023-05-18T14:09:30.111Z,52.50
2023-05-18T14:12:33.999Z,51.79
2023-05-18T14:15:37.743Z,52.32
2023-05-18T14:18:41.458Z,50.97
2023-05-18T14:21:44.849Z,52.63
2023-05-18T14:24:49.530Z,52.50
2023-05-18T14:27:53.291Z,51.44
2023-05-18T14:30:57.094Z,52.61
2023-05-18T14:34:01.798Z,50.83
2023-05-18T14:37:05.663Z,51.60
2023-05-18T14:40:14.192Z,51.28
2023-05-18T14:43:17.946Z,53.29
2023-05-18T14:46:21.704Z,52.73
2023-05-18T14:49:25.602Z,51.83
2023-05-18T14:52:29.301Z,51.30
2023-05-18T14:55:34.495Z,52.17
2023-05-18T14:58:37.829Z,53.74
2023-05-18T15:01:41.238Z,53.52
2023-05-18T15:04:45.445Z,52.68
2023-05-18T15:07:55.061Z,52.95
2023-05-18T15:11:00.125Z,53.39
2023-05-18T15:14:04.265Z,52.52
2023-05-18T15:17:08.711Z,54.24
2023-05-18T15:20:13.435Z,53.96
2023-05-18T15:23:17.090Z,52.82
2023-05-18T15:26:22.349Z,54.01
2023-05-18T15:29:26.424Z,53.47
2023-05-18T15:32:32.537Z,54.79
2023-05-18T15:35:36.677Z,55.16
2023-05-18T15:38:40.457Z,54.14
2023-05-18T15:41:46.071Z,54.55
2023-05-18T15:44:49.723Z,54.57
2023-05-18T15:47:53.245Z,55.74
2023-05-18T15:50:57.158Z,55.28
2023-05-18T15:54:01.713Z,55.26
2023-05-18T15:57:07.591Z,54.85
2023-05-18T16:00:12.138Z,55.34
2023-05-18T16:03:15.960Z,54.48
2023-05-18T16:06:19.810Z,55.02
2023-05-18T16:09:23.226Z,55.57
2023-05-18T16:12:28.535Z,54.67
2023-05-18T16:15:34.281Z,54.43
2023-05-18T16:18:38.184Z,55.86
2023-05-18T16:21:42.019Z,56.53
2023-05-18T16:24:45.656Z,57.88
2023-05-18T16:27:51.748Z,58.99
2023-05-18T16:30:55.503Z,58.02
2023-05-18T16:33:59.006Z,57.51
2023-05-18T16:37:02.538Z,57.53
2023-05-18T16:40:06.667Z,58.77
2023-05-18T16:43:11.451Z,59.90
2023-05-18T16:46:15.294Z,60.27
2023-05-18T16:49:23.627Z,60.98
2023-05-18T16:52:27.294Z,60.48
2023-05-18T16:55:30.967Z,59.82
2023-05-18T16:58:36.113Z,61.22
2023-05-18T17:01:39.560Z,60.55
2023-05-18T17:04:44.919Z,60.94
2023-05-18T17:07:48.502Z,60.80
2023-05-18T17:10:51.931Z,61.64
2023-05-18T17:13:57.867Z,61.98
2023-05-18T17:17:01.716Z,62.96
2023-05-18T17:20:06.853Z,61.10
2023-05-18T17:23:12.471Z,61.85
2023-05-18T17:26:16.006Z,62.33
2023-05-18T17:29:21.904Z,62.61
2023-05-18T17:32:28.578Z,62.62
2023-05-18T17:35:32.134Z,63.40
2023-05-18T17:38:36.962Z,63.76
2023-05-18T17:41:40.437Z,64.68
2023-05-18T17:44:47.326Z,65.01
2023-05-18T17:47:51.285Z,66.54
2023-05-18T17:50:55.199Z,66.44
2023-05-18T17:53:58.615Z,67.04
2023-05-18T17:57:01.963Z,66.33
2023-05-18T18:00:09.468Z,67.10
2023-05-18T18:03:14.611Z,68.29
2023-05-18T18:06:22.442Z,68.92
2023-05-18T18:09:25.853Z,68.58
2023-05-18T18:12:29.344Z,68.86
2023-05-18T18:15:34.827Z,69.07
2023-05-18T18:18:41.201Z,68.14
2023-05-18T18:21:44.945Z,66.88
2023-05-18T18:24:48.504Z,66.67
2023-05-18T18:27:51.784Z,66.61
2023-05-18T18:30:57.238Z,68.13
2023-05-18T18:34:00.798Z,67.30
2023-05-18T18:37:04.485Z,67.63
2023-05-18T18:40:09.555Z,68.56
2023-05-18T18:43:13.553Z,68.74
2023-05-18T18:46:18.773Z,69.22
2023-05-18T18:49:22.369Z,69.49
2023-05-18T18:52:25.985Z,68.85
2023-05-18T18:55:29.602Z,69.50
2023-05-18T18:58:33.972Z,69.92
2023-05-18T19:01:39.210Z,69.73
2023-05-18T19:04:42.795Z,70.32
2023-05-18T19:07:47.148Z,70.56
2023-05-18T19:10:50.625Z,69.47
2023-05-18T19:13:54.577Z,70.13
2023-05-18T19:16:59.766Z,70.56
2023-05-18T19:20:03.477Z,70.86
2023-05-18T19:23:07.137Z,71.61
2023-05-18T19:26:10.700Z,71.51
2023-05-18T19:29:14.857Z,71.21
2023-05-18T19:32:19.933Z,71.24
2023-05-18T19:35:24.473Z,71.63
2023-05-18T19:38:28.018Z,72.40
2023-05-18T19:41:31.538Z,72.13
2023-05-18T19:44:35.744Z,71.73
2023-05-18T19:47:40.902Z,72.03
2023-05-18T19:50:44.667Z,71.91
2023-05-18T19:53:48.359Z,72.91
2023-05-18T19:56:51.953Z,73.68
2023-05-18T19:59:55.627Z,73.17
2023-05-18T20:03:02.490Z,73.13
2023-05-18T20:06:06.461Z,72.88
2023-05-18T20:09:10.425Z,73.35
2023-05-18T20:12:14.791Z,73.93
2023-05-18T20:15:18.937Z,73.51
2023-05-18T20:18:26.042Z,71.60
2023-05-18T20:21:29.716Z,71.10
2023-05-18T20:24:33.377Z,71.29
2023-05-18T20:27:37.226Z,72.48
2023-05-18T20:30:40.904Z,72.65
2023-05-18T20:33:46.831Z,72.13
2023-05-18T20:36:50.283Z,72.75
2023-05-18T20:39:57.497Z,73.61
2023-05-18T20:43:01.292Z,73.26
2023-05-18T20:46:06.065Z,73.42
2023-05-18T20:49:12.310Z,72.65
2023-05-18T20:52:16.311Z,73.35
2023-05-18T20:55:20.451Z,72.89
2023-05-18T20:58:24.036Z,73.87
2023-05-18T21:01:28.908Z,72.77
2023-05-18T21:04:34.979Z,74.13
2023-05-18T21:07:40.455Z,73.89
2023-05-18T21:10:44.524Z,73.32
2023-05-18T21:13:48.616Z,73.10
2023-05-18T21:16:54.034Z,72.99
2023-05-18T21:19:59.282Z,73.16
2023-05-18T21:23:02.806Z,73.09
2023-05-18T21:26:06.467Z,73.76
2023-05-18T21:29:10.805Z,73.92
2023-05-18T21:32:14.462Z,74.28
2023-05-18T21:35:19.653Z,74.28
2023-05-18T21:38:23.055Z,73.36
2023-05-18T21:41:26.419Z,74.24
2023-05-18T21:44:31.643Z,74.55
2023-05-18T21:47:35.109Z,74.67
2023-05-18T21:50:41.830Z,75.03
2023-05-18T21:53:49.265Z,74.98
2023-05-18T21:56:52.986Z,75.53
2023-05-18T21:59:56.413Z,75.49
2023-05-18T22:03:00.158Z,76.42
2023-05-18T22:06:05.508Z,75.82
2023-05-18T22:09:08.918Z,76.03
2023-05-18T22:12:15.041Z,76.71
2023-05-18T22:15:22.422Z,76.24
2023-05-18T22:18:27.189Z,76.09
2023-05-18T22:21:32.376Z,76.60
2023-05-18T22:24:36.044Z,76.41
2023-05-18T22:27:39.854Z,76.86
2023-05-18T22:30:43.260Z,76.50
2023-05-18T22:33:46.788Z,75.53
2023-05-18T22:36:51.878Z,75.79
2023-05-18T22:39:55.331Z,76.48
2023-05-18T22:42:58.828Z,76.51
2023-05-18T22:46:02.912Z,76.70
2023-05-18T22:49:06.790Z,75.47
2023-05-18T22:52:12.038Z,75.07
2023-05-18T22:55:16.289Z,75.51
2023-05-18T22:58:20.337Z,74.59
2023-05-18T23:01:23.914Z,75.26
2023-05-18T23:04:27.483Z,74.73
2023-05-18T23:07:36.358Z,73.80
2023-05-18T23:10:42.165Z,73.76
2023-05-18T23:13:46.884Z,73.89
2023-05-18T23:16:51.436Z,74.35
2023-05-18T23:19:56.654Z,76.29
2023-05-18T23:23:01.631Z,77.46
2023-05-18T23:26:05.068Z,77.91
2023-05-18T23:29:12.490Z,76.81
2023-05-18T23:32:16.237Z,76.47
2023-05-18T23:35:20.834Z,76.69
2023-05-18T23:38:35.040Z,76.29
2023-05-18T23:41:39.205Z,76.27
2023-05-18T23:44:43.327Z,76.54
2023-05-18T23:47:47.440Z,76.49
2023-05-18T23:50:54.069Z,75.90
2023-05-18T23:54:00.150Z,75.72
2023-05-18T23:57:05.228Z,76.54
